Time;durP1;ratioP1;P1;durP2;ratioP2;P2;SDS_P1;SDS_P2;PMS_P1;PMS_P2;Temp;Humidity;BMP_temperature;BMP_pressure;BME280_temperature;BME280_humidity;BME280_pressure;Samples;Min_cycle;Max_cycle;Signal;HPM_P1;HPM_P2
2023/03/06 00:02:00;;;;;;;52.75;23.73;;;;;;;;;;5057911;28;20029;-63
2023/03/06 00:04:26;;;;;;;48.25;22.63;;;;;;;;;;5069418;28;20736;-63
2023/03/06 00:06:53;;;;;;;50.00;22.77;;;;;;;;;;5059306;28;20036;-63
2023/03/06 00:09:19;;;;;;;46.55;22.77;;;;;;;;;;5063305;28;20128;-63
2023/03/06 00:11:45;;;;;;;44.92;21.83;;;;;;;;;;5066279;28;20033;-63
2023/03/06 00:14:11;;;;;;;46.65;22.63;;;;;;;;;;5057019;28;20395;-63
2023/03/06 00:16:37;;;;;;;47.00;20.42;;;;;;;;;;5055188;28;20029;-63
2023/03/06 00:19:03;;;;;;;41.88;20.48;;;;;;;;;;5061981;28;20031;-63
2023/03/06 00:21:29;;;;;;;42.65;21.27;;;;;;;;;;5063575;28;20033;-64
2023/03/06 00:23:55;;;;;;;41.90;19.90;;;;;;;;;;5068684;28;20028;-63
2023/03/06 00:26:21;;;;;;;49.13;22.40;;;;;;;;;;5057579;28;20064;-63
2023/03/06 00:28:48;;;;;;;59.88;23.48;;;;;;;;;;5070065;28;20025;-63
2023/03/06 00:31:16;;;;;;;63.67;26.27;;;;;;;;;;5063016;28;20043;-63
2023/03/06 00:33:42;;;;;;;90.82;31.85;;;;;;;;;;5074169;28;20492;-63
2023/03/06 00:36:09;;;;;;;116.00;36.53;;;;;;;;;;5040518;28;20413;-63
2023/03/06 00:38:36;;;;;;;108.60;35.83;;;;;;;;;;5052240;28;20035;-63
2023/03/06 00:41:12;;;;;;;98.80;33.75;;;;;;;;;;5060433;28;20079;-63
2023/03/06 00:43:38;;;;;;;57.55;25.17;;;;;;;;;;5062753;28;20057;-63
2023/03/06 00:46:07;;;;;;;52.25;22.38;;;;;;;;;;5069540;28;20381;-63
2023/03/06 00:48:33;;;;;;;50.88;23.42;;;;;;;;;;5056939;28;20033;-63
2023/03/06 00:50:59;;;;;;;49.60;23.50;;;;;;;;;;5050540;28;20017;-64
2023/03/06 00:53:26;;;;;;;47.65;21.67;;;;;;;;;;5063085;28;20035;-63
2023/03/06 00:55:52;;;;;;;46.63;20.63;;;;;;;;;;5043089;28;20033;-63
2023/03/06 00:58:18;;;;;;;40.28;20.48;;;;;;;;;;5052271;28;20056;-63
2023/03/06 01:00:44;;;;;;;41.15;20.98;;;;;;;;;;5057530;28;20020;-63
2023/03/06 01:03:10;;;;;;;47.53;21.17;;;;;;;;;;5054994;28;20032;-63
2023/03/06 01:05:37;;;;;;;58.17;24.35;;;;;;;;;;5045237;28;20032;-63
2023/03/06 01:08:05;;;;;;;53.25;23.05;;;;;;;;;;5067935;28;20036;-63
2023/03/06 01:10:31;;;;;;;47.80;22.15;;;;;;;;;;5056755;28;20033;-63
2023/03/06 01:12:58;;;;;;;47.42;22.00;;;;;;;;;;5050983;28;20119;-64
2023/03/06 01:15:25;;;;;;;47.70;21.15;;;;;;;;;;5044888;28;20113;-63
2023/03/06 01:17:53;;;;;;;44.60;20.80;;;;;;;;;;5055249;28;20479;-63
2023/03/06 01:20:19;;;;;;;46.58;21.60;;;;;;;;;;5039445;28;20044;-63
2023/03/06 01:22:45;;;;;;;49.13;22.92;;;;;;;;;;5056442;28;20284;-63
2023/03/06 01:25:11;;;;;;;47.45;20.88;;;;;;;;;;5066934;28;20113;-63
2023/03/06 01:27:38;;;;;;;42.88;20.35;;;;;;;;;;5063476;28;20032;-63
2023/03/06 01:30:04;;;;;;;39.95;18.70;;;;;;;;;;5059893;28;20025;-63
2023/03/06 01:32:30;;;;;;;34.20;17.38;;;;;;;;;;5035901;28;20508;-63
2023/03/06 01:34:57;;;;;;;39.13;17.20;;;;;;;;;;5051084;28;20025;-63
2023/03/06 01:37:23;;;;;;;35.33;16.92;;;;;;;;;;5044144;28;20507;-63
2023/03/06 01:39:49;;;;;;;39.63;16.50;;;;;;;;;;5041822;28;20049;-63
2023/03/06 01:42:16;;;;;;;32.45;16.23;;;;;;;;;;5050486;28;20067;-63
2023/03/06 01:44:59;;;;;;;29.55;15.38;;;;;;;;;;5055958;28;20559;-63
2023/03/06 01:47:25;;;;;;;31.90;16.23;;;;;;;;;;5047116;28;20048;-63
2023/03/06 01:49:52;;;;;;;32.55;15.88;;;;;;;;;;5064535;28;20032;-63
2023/03/06 01:52:21;;;;;;;30.50;15.23;;;;;;;;;;5057382;28;20075;-63
2023/03/06 01:54:50;;;;;;;32.78;16.17;;;;;;;;;;5050384;28;20037;-63
2023/03/06 01:57:30;;;;;;;40.10;18.48;;;;;;;;;;5041355;28;20033;-63
2023/03/06 02:00:04;;;;;;;32.08;17.85;;;;;;;;;;5060881;28;20040;-63
2023/03/06 02:02:40;;;;;;;33.90;16.98;;;;;;;;;;5069142;28;20086;-63
2023/03/06 02:05:07;;;;;;;32.28;15.85;;;;;;;;;;5039416;28;20108;-63
2023/03/06 02:07:34;;;;;;;31.75;16.73;;;;;;;;;;5045959;28;20029;-63
2023/03/06 02:10:00;;;;;;;31.15;16.58;;;;;;;;;;5065089;28;20029;-63
2023/03/06 02:12:26;;;;;;;34.75;16.30;;;;;;;;;;5056926;28;20063;-63
2023/03/06 02:14:53;;;;;;;34.90;17.00;;;;;;;;;;5050898;28;20028;-63
2023/03/06 02:17:21;;;;;;;30.80;15.07;;;;;;;;;;5059004;28;20036;-63
2023/03/06 02:19:50;;;;;;;29.02;14.45;;;;;;;;;;5061884;28;20079;-63
2023/03/06 02:22:18;;;;;;;32.50;15.48;;;;;;;;;;5066709;28;20429;-63
2023/03/06 02:25:03;;;;;;;33.00;13.98;;;;;;;;;;5037438;28;20036;-63
2023/03/06 02:27:29;;;;;;;28.50;12.82;;;;;;;;;;5064942;28;20033;-63
2023/03/06 02:29:55;;;;;;;25.17;14.68;;;;;;;;;;5063324;28;20037;-64
2023/03/06 02:32:21;;;;;;;30.50;13.77;;;;;;;;;;5072031;28;20040;-63
2023/03/06 02:34:50;;;;;;;28.45;13.60;;;;;;;;;;5036804;28;20028;-63
2023/03/06 02:37:17;;;;;;;28.50;13.35;;;;;;;;;;5048635;28;20408;-63
2023/03/06 02:39:46;;;;;;;27.40;13.13;;;;;;;;;;5042660;28;20052;-63
2023/03/06 02:42:19;;;;;;;30.58;13.82;;;;;;;;;;5058372;28;20402;-63
2023/03/06 02:44:45;;;;;;;24.25;12.23;;;;;;;;;;5049610;28;20039;-63
2023/03/06 02:47:11;;;;;;;28.17;13.63;;;;;;;;;;5055789;28;20090;-63
2023/03/06 02:49:37;;;;;;;25.00;13.35;;;;;;;;;;5062731;28;20136;-63
2023/03/06 02:52:05;;;;;;;24.88;12.43;;;;;;;;;;5045154;28;20082;-63
2023/03/06 02:54:31;;;;;;;30.88;13.27;;;;;;;;;;5038121;28;20067;-63
2023/03/06 02:56:57;;;;;;;26.75;12.68;;;;;;;;;;5066922;28;20116;-63
2023/03/06 02:59:24;;;;;;;26.27;12.25;;;;;;;;;;5039210;28;20449;-63
2023/03/06 03:01:50;;;;;;;20.67;11.73;;;;;;;;;;5049239;28;20025;-63
2023/03/06 03:04:16;;;;;;;25.88;12.90;;;;;;;;;;5070440;28;20306;-63
2023/03/06 03:06:43;;;;;;;29.25;14.32;;;;;;;;;;5054286;28;20164;-63
2023/03/06 03:09:10;;;;;;;24.50;13.10;;;;;;;;;;5049214;28;20492;-63
2023/03/06 03:11:36;;;;;;;25.10;11.77;;;;;;;;;;5058360;28;20064;-63
2023/03/06 03:14:02;;;;;;;27.13;13.30;;;;;;;;;;5039760;28;20029;-63
2023/03/06 03:16:29;;;;;;;26.45;12.25;;;;;;;;;;5046396;28;20039;-63
2023/03/06 03:18:57;;;;;;;24.83;12.60;;;;;;;;;;5042716;28;20119;-63
2023/03/06 03:21:25;;;;;;;23.48;11.13;;;;;;;;;;5039027;28;20022;-63
2023/03/06 03:23:53;;;;;;;23.67;12.05;;;;;;;;;;5048895;28;20063;-63
2023/03/06 03:26:20;;;;;;;28.17;11.60;;;;;;;;;;5055382;28;20036;-63
2023/03/06 03:28:57;;;;;;;25.40;11.75;;;;;;;;;;5042388;28;20033;-63
2023/03/06 03:31:24;;;;;;;26.73;12.32;;;;;;;;;;5037453;28;20048;-63
2023/03/06 03:33:50;;;;;;;27.50;12.30;;;;;;;;;;5041664;28;20102;-63
2023/03/06 03:36:18;;;;;;;29.33;12.70;;;;;;;;;;5048990;28;20672;-63
2023/03/06 03:38:46;;;;;;;24.73;12.27;;;;;;;;;;5045509;28;20107;-63
2023/03/06 03:41:13;;;;;;;30.35;13.23;;;;;;;;;;5008864;28;1262495;-64
2023/03/06 03:43:39;;;;;;;22.40;12.32;;;;;;;;;;5038289;28;20552;-63
2023/03/06 03:46:05;;;;;;;31.92;14.27;;;;;;;;;;5049235;28;20422;-63
2023/03/06 03:48:32;;;;;;;28.27;14.45;;;;;;;;;;5039236;28;20429;-63
2023/03/06 03:51:09;;;;;;;37.38;16.63;;;;;;;;;;5043503;28;20021;-63
2023/03/06 03:53:39;;;;;;;30.05;14.80;;;;;;;;;;5048301;28;20025;-63
2023/03/06 03:56:07;;;;;;;30.65;15.93;;;;;;;;;;5054179;28;20416;-63
2023/03/06 03:58:39;;;;;;;32.53;14.73;;;;;;;;;;5046817;28;20568;-64
2023/03/06 04:01:06;;;;;;;33.33;15.25;;;;;;;;;;5060996;28;20051;-63
2023/03/06 04:03:32;;;;;;;28.58;14.45;;;;;;;;;;5039058;28;20029;-63
2023/03/06 04:05:58;;;;;;;29.15;13.60;;;;;;;;;;5067301;28;20098;-63
2023/03/06 04:08:25;;;;;;;27.45;13.60;;;;;;;;;;5037657;28;20111;-63
2023/03/06 04:10:52;;;;;;;29.58;13.10;;;;;;;;;;5063296;28;20457;-63
2023/03/06 04:13:20;;;;;;;23.80;13.25;;;;;;;;;;5045052;28;20554;-63
2023/03/06 04:15:47;;;;;;;21.90;12.02;;;;;;;;;;5037639;28;20082;-63
2023/03/06 04:18:15;;;;;;;23.27;12.27;;;;;;;;;;5070741;28;21020;-64
2023/03/06 04:20:45;;;;;;;23.95;13.13;;;;;;;;;;5043050;28;20067;-63
2023/03/06 04:23:11;;;;;;;23.95;11.30;;;;;;;;;;5064348;28;20021;-63
2023/03/06 04:25:38;;;;;;;23.80;12.88;;;;;;;;;;5050615;28;20024;-63
2023/03/06 04:28:06;;;;;;;24.08;12.07;;;;;;;;;;5039366;28;20063;-63
2023/03/06 04:30:33;;;;;;;24.42;11.00;;;;;;;;;;5069034;28;20017;-63
2023/03/06 04:33:00;;;;;;;24.98;12.05;;;;;;;;;;5041155;28;20392;-63
2023/03/06 04:35:26;;;;;;;21.95;10.85;;;;;;;;;;5048988;28;20029;-63
2023/03/06 04:37:59;;;;;;;19.95;11.07;;;;;;;;;;5050363;28;20025;-63
2023/03/06 04:40:29;;;;;;;21.90;10.00;;;;;;;;;;5043919;28;20470;-63
2023/03/06 04:42:55;;;;;;;23.58;11.27;;;;;;;;;;5054823;28;20025;-63
2023/03/06 04:45:22;;;;;;;24.25;10.23;;;;;;;;;;5064876;28;20029;-63
2023/03/06 04:47:48;;;;;;;20.42;10.38;;;;;;;;;;5073793;28;20031;-63
2023/03/06 04:50:15;;;;;;;22.30;10.23;;;;;;;;;;5056826;28;20491;-63
2023/03/06 04:52:42;;;;;;;26.40;11.82;;;;;;;;;;5072660;28;20059;-63
2023/03/06 04:55:08;;;;;;;21.55;10.55;;;;;;;;;;5065073;28;20021;-63
2023/03/06 04:57:35;;;;;;;20.85;10.90;;;;;;;;;;5059880;28;20485;-63
2023/03/06 05:00:03;;;;;;;25.23;11.20;;;;;;;;;;5070002;28;20074;-63
2023/03/06 05:02:29;;;;;;;25.77;11.43;;;;;;;;;;5057394;28;20185;-63
2023/03/06 05:04:55;;;;;;;21.70;10.52;;;;;;;;;;5067122;28;20547;-63
2023/03/06 05:07:21;;;;;;;31.13;12.07;;;;;;;;;;5064346;28;20075;-63
2023/03/06 05:09:47;;;;;;;20.60;10.20;;;;;;;;;;5059662;28;20037;-63
2023/03/06 05:12:13;;;;;;;23.27;10.43;;;;;;;;;;5069573;28;20040;-63
2023/03/06 05:14:40;;;;;;;22.90;11.35;;;;;;;;;;5067546;28;20055;-63
2023/03/06 05:17:06;;;;;;;22.48;11.35;;;;;;;;;;5054143;28;20071;-63
2023/03/06 05:19:32;;;;;;;22.45;11.68;;;;;;;;;;5057326;28;20431;-64
2023/03/06 05:21:58;;;;;;;19.15;9.85;;;;;;;;;;5057849;28;20025;-63
2023/03/06 05:24:24;;;;;;;28.40;10.63;;;;;;;;;;5069243;28;20503;-63
2023/03/06 05:26:50;;;;;;;19.42;10.82;;;;;;;;;;5059203;28;20028;-63
2023/03/06 05:29:16;;;;;;;18.13;9.65;;;;;;;;;;5065077;28;20059;-63
2023/03/06 05:31:42;;;;;;;19.95;10.07;;;;;;;;;;5060467;28;20163;-63
2023/03/06 05:34:10;;;;;;;18.90;9.75;;;;;;;;;;5053856;28;20405;-63
2023/03/06 05:36:36;;;;;;;19.08;9.82;;;;;;;;;;5069372;28;20402;-63
2023/03/06 05:39:02;;;;;;;16.15;9.63;;;;;;;;;;5058496;28;20151;-63
2023/03/06 05:41:28;;;;;;;19.60;8.82;;;;;;;;;;5064226;28;20115;-63
2023/03/06 05:43:55;;;;;;;18.67;10.07;;;;;;;;;;5069852;28;20028;-63
2023/03/06 05:46:21;;;;;;;20.80;10.38;;;;;;;;;;5071032;28;20127;-63
2023/03/06 05:48:48;;;;;;;14.32;8.55;;;;;;;;;;5067968;28;20025;-63
2023/03/06 05:51:14;;;;;;;17.38;9.23;;;;;;;;;;5061180;28;20035;-63
2023/03/06 05:53:40;;;;;;;21.30;9.20;;;;;;;;;;5061318;28;20036;-63
2023/03/06 05:56:10;;;;;;;16.02;9.13;;;;;;;;;;5067822;28;20033;-63
2023/03/06 05:58:36;;;;;;;19.75;9.48;;;;;;;;;;5067554;28;20060;-63
2023/03/06 06:01:09;;;;;;;15.60;9.00;;;;;;;;;;5066507;28;20028;-63
2023/03/06 06:03:35;;;;;;;;;;;;;;;;;;5063987;28;20029;-63
2023/03/06 06:06:05;;;;;;;17.77;9.43;;;;;;;;;;5058557;28;19908;-63
2023/03/06 06:08:31;;;;;;;18.40;8.60;;;;;;;;;;5067674;28;20025;-63
2023/03/06 06:10:57;;;;;;;20.73;9.57;;;;;;;;;;5067303;28;20404;-63
2023/03/06 06:13:23;;;;;;;19.92;9.57;;;;;;;;;;5061634;28;20032;-63
2023/03/06 06:15:49;;;;;;;19.45;9.63;;;;;;;;;;5060404;28;20029;-63
2023/03/06 06:18:15;;;;;;;17.83;9.68;;;;;;;;;;5068257;28;20032;-63
2023/03/06 06:20:41;;;;;;;19.80;9.98;;;;;;;;;;5058526;28;20033;-63
2023/03/06 06:23:09;;;;;;;16.05;8.10;;;;;;;;;;5068194;28;20146;-63
2023/03/06 06:25:36;;;;;;;17.55;9.27;;;;;;;;;;5070231;28;20040;-63
2023/03/06 06:28:02;;;;;;;14.70;8.32;;;;;;;;;;5057036;28;20083;-63
2023/03/06 06:30:28;;;;;;;18.00;8.73;;;;;;;;;;5065737;28;20064;-63
2023/03/06 06:32:54;;;;;;;15.18;9.35;;;;;;;;;;5065986;28;20024;-64
2023/03/06 06:35:20;;;;;;;17.92;8.95;;;;;;;;;;5068386;28;20081;-63
2023/03/06 06:37:47;;;;;;;18.20;10.00;;;;;;;;;;5069746;28;20403;-63
2023/03/06 06:40:13;;;;;;;17.58;8.48;;;;;;;;;;5068902;28;20059;-63
2023/03/06 06:42:39;;;;;;;19.95;9.32;;;;;;;;;;5069479;28;20040;-63
2023/03/06 06:45:06;;;;;;;15.45;8.27;;;;;;;;;;5066623;28;20024;-63
2023/03/06 06:47:33;;;;;;;15.32;8.80;;;;;;;;;;5068664;28;20024;-63
2023/03/06 06:49:59;;;;;;;15.15;8.48;;;;;;;;;;5071123;28;20056;-63
2023/03/06 06:52:25;;;;;;;15.90;9.10;;;;;;;;;;5067476;28;20033;-64
2023/03/06 06:54:51;;;;;;;14.32;8.15;;;;;;;;;;5061227;28;20039;-63
2023/03/06 06:57:18;;;;;;;17.05;8.88;;;;;;;;;;5070277;28;20078;-63
2023/03/06 06:59:44;;;;;;;20.73;9.80;;;;;;;;;;5069063;28;20021;-63
2023/03/06 07:02:11;;;;;;;15.50;9.50;;;;;;;;;;5068678;28;20020;-63
2023/03/06 07:04:38;;;;;;;18.00;9.18;;;;;;;;;;5059966;28;20025;-63
2023/03/06 07:07:04;;;;;;;16.48;8.70;;;;;;;;;;5069009;28;20029;-63
2023/03/06 07:09:30;;;;;;;13.18;7.68;;;;;;;;;;5070716;28;20043;-64
2023/03/06 07:11:57;;;;;;;13.60;8.45;;;;;;;;;;5067376;28;20062;-64
2023/03/06 07:14:23;;;;;;;22.10;10.57;;;;;;;;;;5064513;28;20124;-64
2023/03/06 07:16:49;;;;;;;14.90;8.68;;;;;;;;;;5066447;28;20446;-65
2023/03/06 07:19:15;;;;;;;26.05;9.60;;;;;;;;;;5071173;28;20020;-65
2023/03/06 07:21:42;;;;;;;16.30;9.65;;;;;;;;;;5068484;28;20396;-65
2023/03/06 07:24:08;;;;;;;18.20;9.68;;;;;;;;;;5066728;28;20485;-63
2023/03/06 07:26:34;;;;;;;21.50;9.95;;;;;;;;;;5064025;28;20025;-64
2023/03/06 07:29:02;;;;;;;18.40;9.23;;;;;;;;;;5063938;28;20361;-64
2023/03/06 07:31:28;;;;;;;17.55;8.50;;;;;;;;;;5050238;28;20432;-65
2023/03/06 07:33:54;;;;;;;15.23;9.18;;;;;;;;;;5069746;28;20392;-65
2023/03/06 07:36:21;;;;;;;23.60;9.38;;;;;;;;;;5071221;28;20167;-65
2023/03/06 07:38:47;;;;;;;17.80;8.82;;;;;;;;;;5070220;28;20054;-64
2023/03/06 07:41:15;;;;;;;14.30;8.30;;;;;;;;;;5071613;28;20409;-65
2023/03/06 07:43:45;;;;;;;14.32;7.55;;;;;;;;;;5069782;28;20023;-65
2023/03/06 07:46:12;;;;;;;15.55;9.18;;;;;;;;;;5049467;28;20507;-65
2023/03/06 07:48:39;;;;;;;18.55;8.43;;;;;;;;;;5055631;28;20021;-65
2023/03/06 07:51:06;;;;;;;18.48;9.60;;;;;;;;;;5071034;28;20048;-65
2023/03/06 07:53:33;;;;;;;19.55;10.10;;;;;;;;;;5073463;28;20036;-65
2023/03/06 07:55:59;;;;;;;18.30;9.00;;;;;;;;;;5074928;28;20031;-65
2023/03/06 07:58:25;;;;;;;17.98;9.60;;;;;;;;;;5069286;28;20028;-65
2023/03/06 08:00:51;;;;;;;14.90;9.02;;;;;;;;;;5073036;28;20116;-65
2023/03/06 08:03:17;;;;;;;19.58;8.90;;;;;;;;;;5065726;28;20027;-65
2023/03/06 08:05:44;;;;;;;17.02;9.68;;;;;;;;;;5070616;28;20071;-64
2023/03/06 08:08:11;;;;;;;20.23;9.20;;;;;;;;;;5060786;28;20025;-64
2023/03/06 08:10:37;;;;;;;15.55;8.95;;;;;;;;;;5068991;28;20028;-65
2023/03/06 08:13:03;;;;;;;17.30;9.25;;;;;;;;;;5074655;28;20025;-65
2023/03/06 08:15:29;;;;;;;20.83;9.45;;;;;;;;;;5074652;28;20035;-64
2023/03/06 08:17:55;;;;;;;18.65;8.93;;;;;;;;;;5073947;28;20025;-65
2023/03/06 08:20:21;;;;;;;16.42;8.80;;;;;;;;;;5073309;28;20024;-64
2023/03/06 08:22:48;;;;;;;18.73;9.23;;;;;;;;;;5073793;28;20052;-65
2023/03/06 08:25:14;;;;;;;16.45;8.38;;;;;;;;;;5065441;28;20028;-65
2023/03/06 08:27:40;;;;;;;17.70;9.75;;;;;;;;;;5063046;28;20040;-64
2023/03/06 08:30:07;;;;;;;18.42;10.30;;;;;;;;;;5068447;28;20040;-64
2023/03/06 08:32:36;;;;;;;16.23;9.15;;;;;;;;;;5063366;28;20488;-64
2023/03/06 08:35:06;;;;;;;19.33;9.73;;;;;;;;;;5064942;28;20483;-65
2023/03/06 08:37:32;;;;;;;16.63;9.15;;;;;;;;;;5066149;28;20021;-65
2023/03/06 08:39:58;;;;;;;19.58;9.95;;;;;;;;;;5070175;28;20062;-65
2023/03/06 08:42:24;;;;;;;18.42;8.82;;;;;;;;;;5063857;28;20012;-65
2023/03/06 08:44:50;;;;;;;16.65;8.85;;;;;;;;;;5068075;28;20147;-65
2023/03/06 08:47:16;;;;;;;17.83;9.25;;;;;;;;;;5067628;28;20043;-64
2023/03/06 08:49:42;;;;;;;24.05;9.63;;;;;;;;;;5062229;28;20173;-65
2023/03/06 08:52:09;;;;;;;17.08;9.52;;;;;;;;;;5063636;28;20020;-65
2023/03/06 08:54:36;;;;;;;21.08;10.10;;;;;;;;;;5068341;28;20119;-64
2023/03/06 08:57:02;;;;;;;18.25;9.55;;;;;;;;;;5059713;28;20104;-65
2023/03/06 08:59:28;;;;;;;20.27;10.40;;;;;;;;;;5067400;28;20048;-64
2023/03/06 09:01:54;;;;;;;18.00;9.68;;;;;;;;;;5065471;28;20028;-65
2023/03/06 09:04:20;;;;;;;18.33;9.70;;;;;;;;;;5062272;28;20025;-65
2023/03/06 09:06:46;;;;;;;19.25;8.55;;;;;;;;;;5070919;28;20037;-65
2023/03/06 09:09:13;;;;;;;17.80;9.32;;;;;;;;;;5065886;28;20511;-64
2023/03/06 09:11:39;;;;;;;17.23;9.48;;;;;;;;;;5064442;28;20036;-64
2023/03/06 09:14:05;;;;;;;15.30;9.43;;;;;;;;;;5065104;28;20582;-64
2023/03/06 09:16:32;;;;;;;18.63;9.13;;;;;;;;;;5061138;28;20555;-65
2023/03/06 09:18:58;;;;;;;13.55;8.13;;;;;;;;;;5065155;28;20029;-64
2023/03/06 09:21:26;;;;;;;16.40;9.02;;;;;;;;;;5068948;28;20040;-64
2023/03/06 09:23:52;;;;;;;17.83;9.02;;;;;;;;;;5063063;28;20027;-65
2023/03/06 09:26:18;;;;;;;15.82;7.88;;;;;;;;;;5068885;28;20028;-64
2023/03/06 09:28:44;;;;;;;21.48;10.23;;;;;;;;;;5063014;28;20012;-64
2023/03/06 09:31:12;;;;;;;16.58;9.20;;;;;;;;;;5066651;28;20438;-64
2023/03/06 09:33:38;;;;;;;15.55;9.18;;;;;;;;;;5066761;28;20556;-64
2023/03/06 09:36:05;;;;;;;17.80;9.48;;;;;;;;;;5062149;28;20024;-64
2023/03/06 09:38:31;;;;;;;20.45;9.27;;;;;;;;;;5062534;28;20029;-65
2023/03/06 09:40:58;;;;;;;16.23;9.30;;;;;;;;;;5046475;28;20068;-65
2023/03/06 09:43:44;;;;;;;19.02;8.85;;;;;;;;;;5037839;28;20033;-64
2023/03/06 09:46:42;;;;;;;14.30;8.50;;;;;;;;;;5042545;28;20103;-65
2023/03/06 09:49:31;;;;;;;18.92;9.02;;;;;;;;;;5006977;28;20583;-64
2023/03/06 09:52:04;;;;;;;17.40;8.63;;;;;;;;;;5045702;28;20475;-64
2023/03/06 09:54:36;;;;;;;14.13;7.88;;;;;;;;;;5047819;28;20079;-65
2023/03/06 09:57:02;;;;;;;19.02;8.93;;;;;;;;;;5042727;28;20035;-65
2023/03/06 09:59:29;;;;;;;18.55;8.25;;;;;;;;;;5039100;28;20036;-65
2023/03/06 10:02:15;;;;;;;13.98;8.30;;;;;;;;;;5038638;28;20473;-64
2023/03/06 10:04:43;;;;;;;16.70;8.75;;;;;;;;;;5043600;28;20487;-65
2023/03/06 10:07:12;;;;;;;14.40;8.48;;;;;;;;;;5046179;28;20029;-65
2023/03/06 10:09:47;;;;;;;15.95;7.82;;;;;;;;;;5043035;28;20536;-65
2023/03/06 10:12:20;;;;;;;14.30;8.57;;;;;;;;;;5043610;28;20370;-65
2023/03/06 10:14:57;;;;;;;14.38;7.90;;;;;;;;;;5042131;28;20040;-62
2023/03/06 10:17:25;;;;;;;14.45;7.68;;;;;;;;;;5039772;28;20091;-62
2023/03/06 10:19:51;;;;;;;18.35;8.43;;;;;;;;;;5041997;28;20023;-63
2023/03/06 10:22:32;;;;;;;15.70;7.90;;;;;;;;;;5042406;28;20083;-63
2023/03/06 10:25:10;;;;;;;12.15;6.60;;;;;;;;;;5037181;28;20105;-62
2023/03/06 10:27:36;;;;;;;14.90;6.97;;;;;;;;;;5043874;28;20017;-63
2023/03/06 10:30:12;;;;;;;15.68;7.85;;;;;;;;;;5045230;28;20159;-62
2023/03/06 10:32:41;;;;;;;13.27;7.20;;;;;;;;;;5045307;28;20037;-63
2023/03/06 10:35:12;;;;;;;13.75;7.63;;;;;;;;;;5041478;28;20108;-62
2023/03/06 10:37:38;;;;;;;12.70;6.82;;;;;;;;;;5040567;28;20531;-62
2023/03/06 10:40:12;;;;;;;13.80;7.25;;;;;;;;;;5032954;28;20036;-63
2023/03/06 10:42:38;;;;;;;15.85;6.70;;;;;;;;;;5041178;28;20427;-63
2023/03/06 10:45:12;;;;;;;12.35;7.43;;;;;;;;;;5039513;28;20088;-62
2023/03/06 10:47:39;;;;;;;12.85;7.53;;;;;;;;;;5041321;28;20500;-62
2023/03/06 10:50:17;;;;;;;10.55;6.15;;;;;;;;;;5042793;28;20489;-62
2023/03/06 10:52:43;;;;;;;15.27;7.63;;;;;;;;;;5034583;28;20037;-62
2023/03/06 10:55:29;;;;;;;10.43;6.07;;;;;;;;;;5048207;28;20033;-62
2023/03/06 10:57:55;;;;;;;13.52;7.28;;;;;;;;;;5040720;28;20037;-63
2023/03/06 11:00:29;;;;;;;13.57;6.93;;;;;;;;;;5039722;28;20017;-62
2023/03/06 11:03:16;;;;;;;12.95;6.93;;;;;;;;;;5043737;28;20043;-62
2023/03/06 11:05:54;;;;;;;13.55;6.90;;;;;;;;;;5043404;28;20029;-62
2023/03/06 11:08:21;;;;;;;13.73;7.00;;;;;;;;;;5046043;28;20037;-62
2023/03/06 11:10:56;;;;;;;10.75;6.55;;;;;;;;;;5043159;28;20377;-65
2023/03/06 11:13:24;;;;;;;14.13;7.10;;;;;;;;;;5048169;28;20064;-65
2023/03/06 11:16:07;;;;;;;13.23;6.05;;;;;;;;;;5044530;28;20578;-63
2023/03/06 11:18:36;;;;;;;13.02;6.70;;;;;;;;;;5040126;28;20041;-62
2023/03/06 11:21:03;;;;;;;14.02;7.22;;;;;;;;;;5040932;28;20029;-62
2023/03/06 11:23:41;;;;;;;15.02;7.18;;;;;;;;;;5045620;28;20028;-62
2023/03/06 11:26:07;;;;;;;14.80;7.30;;;;;;;;;;5045463;28;20050;-62
2023/03/06 11:28:39;;;;;;;11.48;6.25;;;;;;;;;;5039776;28;20029;-63
2023/03/06 11:31:09;;;;;;;14.23;6.75;;;;;;;;;;5047829;28;20032;-63
2023/03/06 11:33:53;;;;;;;11.55;7.40;;;;;;;;;;5038781;28;20032;-65
2023/03/06 11:36:25;;;;;;;12.57;7.22;;;;;;;;;;5034348;28;20033;-63
2023/03/06 11:38:53;;;;;;;12.18;7.45;;;;;;;;;;5041877;28;20028;-64
2023/03/06 11:41:26;;;;;;;13.82;7.05;;;;;;;;;;5047142;28;20040;-64
2023/03/06 11:43:53;;;;;;;15.07;7.25;;;;;;;;;;5042254;28;20032;-63
2023/03/06 11:46:22;;;;;;;14.98;6.82;;;;;;;;;;5045102;28;20505;-64
2023/03/06 11:48:53;;;;;;;12.65;6.72;;;;;;;;;;5048303;28;20021;-63
2023/03/06 11:51:24;;;;;;;13.90;6.32;;;;;;;;;;5046451;28;20042;-63
2023/03/06 11:53:51;;;;;;;13.40;7.80;;;;;;;;;;5047083;28;20032;-63
2023/03/06 11:56:29;;;;;;;12.32;7.25;;;;;;;;;;5046726;28;20021;-64
2023/03/06 11:59:01;;;;;;;16.80;8.18;;;;;;;;;;5048757;28;20100;-63
2023/03/06 12:01:33;;;;;;;13.65;7.13;;;;;;;;;;5036500;28;20489;-63
2023/03/06 12:04:02;;;;;;;14.48;8.07;;;;;;;;;;5045543;28;20021;-63
2023/03/06 12:06:47;;;;;;;14.95;7.82;;;;;;;;;;5044838;28;20111;-63
2023/03/06 12:09:13;;;;;;;10.60;6.65;;;;;;;;;;5047403;28;20020;-63
2023/03/06 12:11:39;;;;;;;10.85;6.88;;;;;;;;;;5039551;28;20136;-63
2023/03/06 12:14:13;;;;;;;16.83;9.02;;;;;;;;;;5044806;28;20712;-63
2023/03/06 12:17:12;;;;;;;16.10;7.55;;;;;;;;;;5040276;28;20122;-63
2023/03/06 12:19:57;;;;;;;14.23;7.38;;;;;;;;;;5010828;28;20507;-64
2023/03/06 12:22:31;;;;;;;13.50;7.40;;;;;;;;;;5033105;28;20037;-63
2023/03/06 12:25:03;;;;;;;14.88;8.25;;;;;;;;;;5038345;28;20029;-64
2023/03/06 12:27:48;;;;;;;14.45;7.72;;;;;;;;;;5041506;28;20033;-63
2023/03/06 12:30:26;;;;;;;16.08;7.30;;;;;;;;;;5041418;28;20033;-63
2023/03/06 12:32:55;;;;;;;14.77;7.97;;;;;;;;;;5047155;28;20104;-64
2023/03/06 12:35:40;;;;;;;13.85;8.00;;;;;;;;;;5041388;28;20040;-64
2023/03/06 12:38:18;;;;;;;11.88;7.22;;;;;;;;;;5035938;28;20032;-63
2023/03/06 12:40:56;;;;;;;14.18;8.85;;;;;;;;;;5042962;28;20041;-63
2023/03/06 12:43:41;;;;;;;14.50;6.97;;;;;;;;;;5043963;28;20155;-64
2023/03/06 12:46:13;;;;;;;13.98;7.28;;;;;;;;;;5039696;28;20032;-64
2023/03/06 12:48:41;;;;;;;12.10;6.97;;;;;;;;;;5048133;28;20744;-64
2023/03/06 12:51:09;;;;;;;15.30;7.68;;;;;;;;;;5046505;28;20053;-63
2023/03/06 12:53:35;;;;;;;16.35;7.63;;;;;;;;;;5048315;28;20032;-64
2023/03/06 12:56:02;;;;;;;14.40;7.75;;;;;;;;;;5048993;28;20392;-63
2023/03/06 12:58:31;;;;;;;15.02;7.13;;;;;;;;;;5046346;28;20112;-63
2023/03/06 13:00:57;;;;;;;13.43;7.68;;;;;;;;;;5045234;28;20044;-63
2023/03/06 13:03:29;;;;;;;19.17;9.05;;;;;;;;;;5046712;28;20101;-64
2023/03/06 13:05:55;;;;;;;17.10;7.80;;;;;;;;;;5044849;28;20033;-63
2023/03/06 13:08:39;;;;;;;19.33;9.90;;;;;;;;;;5039316;28;20029;-64
2023/03/06 13:11:17;;;;;;;19.30;9.23;;;;;;;;;;5045345;28;20045;-63
2023/03/06 13:13:44;;;;;;;18.35;9.75;;;;;;;;;;5043905;28;20033;-64
2023/03/06 13:16:29;;;;;;;14.43;8.13;;;;;;;;;;5052199;28;20121;-64
2023/03/06 13:19:03;;;;;;;18.77;8.02;;;;;;;;;;5050015;28;20037;-64
2023/03/06 13:21:43;;;;;;;16.63;8.57;;;;;;;;;;5027797;28;20033;-64
2023/03/06 13:24:36;;;;;;;14.65;7.20;;;;;;;;;;5051149;28;20151;-64
2023/03/06 13:27:04;;;;;;;15.70;7.72;;;;;;;;;;5039222;28;20527;-64
2023/03/06 13:29:33;;;;;;;11.02;6.22;;;;;;;;;;5040738;28;20060;-64
2023/03/06 13:31:59;;;;;;;11.52;7.05;;;;;;;;;;5046330;28;20108;-64
2023/03/06 13:34:37;;;;;;;12.90;6.82;;;;;;;;;;5045929;28;20025;-64
2023/03/06 13:37:19;;;;;;;14.10;7.78;;;;;;;;;;5043619;28;20055;-64
2023/03/06 13:39:52;;;;;;;16.65;7.55;;;;;;;;;;5040036;28;20041;-64
2023/03/06 13:42:56;;;;;;;19.20;7.30;;;;;;;;;;5047504;28;20036;-61
2023/03/06 13:45:24;;;;;;;9.68;5.93;;;;;;;;;;4989063;28;20030;-61
2023/03/06 13:47:54;;;;;;;15.40;6.80;;;;;;;;;;4989388;28;20544;-63
2023/03/06 13:50:39;;;;;;;14.10;7.38;;;;;;;;;;4988039;28;20108;-63
2023/03/06 13:53:18;;;;;;;11.20;6.03;;;;;;;;;;4989782;28;20042;-63
2023/03/06 13:56:03;;;;;;;13.98;7.63;;;;;;;;;;4987999;28;20041;-65
2023/03/06 13:58:47;;;;;;;11.15;6.95;;;;;;;;;;4988584;28;20042;-65
2023/03/06 14:01:13;;;;;;;18.50;6.30;;;;;;;;;;4989180;28;20040;-65
2023/03/06 14:03:46;;;;;;;12.07;6.97;;;;;;;;;;4988938;28;20081;-65
2023/03/06 14:06:31;;;;;;;11.00;6.78;;;;;;;;;;4987743;28;20049;-65
2023/03/06 14:08:58;;;;;;;12.20;7.25;;;;;;;;;;4988344;28;20053;-65
2023/03/06 14:11:24;;;;;;;11.85;6.63;;;;;;;;;;4988803;28;20545;-65
2023/03/06 14:13:54;;;;;;;13.57;6.72;;;;;;;;;;4988486;28;20061;-65
2023/03/06 14:16:22;;;;;;;8.75;5.22;;;;;;;;;;5024233;28;20273;-65
2023/03/06 14:18:50;;;;;;;12.52;5.55;;;;;;;;;;5048321;28;20102;-65
2023/03/06 14:21:22;;;;;;;8.73;5.20;;;;;;;;;;5043644;28;20048;-65
2023/03/06 14:23:56;;;;;;;7.97;4.78;;;;;;;;;;5046843;28;20032;-65
2023/03/06 14:26:24;;;;;;;7.70;3.72;;;;;;;;;;5025375;28;20044;-65
2023/03/06 14:28:55;;;;;;;7.85;3.28;;;;;;;;;;5048347;28;20021;-65
2023/03/06 14:31:41;;;;;;;6.53;3.55;;;;;;;;;;5045314;28;20520;-65
2023/03/06 14:34:13;;;;;;;4.68;3.25;;;;;;;;;;5048319;28;20024;-65
2023/03/06 14:36:44;;;;;;;7.10;3.70;;;;;;;;;;5048245;28;20029;-65
2023/03/06 14:39:22;;;;;;;5.40;3.42;;;;;;;;;;5047435;28;20764;-65